sensor_id;sensor_type;location;lat;lon;timestamp;P1;durP1;ratioP1;P2;durP2;ratioP2
64873;SDS011;51367;45.204;38.576;2024-01-15T00:36:40;2.95;;;0.50;;
64873;SDS011;51367;45.204;38.576;2024-01-15T00:39:05;0.30;;;0.30;;
64873;SDS011;51367;45.204;38.576;2024-01-15T00:41:31;0.65;;;0.45;;
64873;SDS011;51367;45.204;38.576;2024-01-15T00:43:58;0.28;;;0.28;;
64873;SDS011;51367;45.204;38.576;2024-01-15T00:46:24;0.30;;;0.30;;
64873;SDS011;51367;45.204;38.576;2024-01-15T00:48:49;0.80;;;0.40;;
64873;SDS011;51367;45.204;38.576;2024-01-15T00:51:16;0.52;;;0.52;;
64873;SDS011;51367;45.204;38.576;2024-01-15T00:53:42;0.25;;;0.25;;
64873;SDS011;51367;45.204;38.576;2024-01-15T00:56:08;0.50;;;0.50;;
64873;SDS011;51367;45.204;38.576;2024-01-15T00:58:34;1.02;;;0.40;;
64873;SDS011;51367;45.204;38.576;2024-01-15T01:01:00;0.30;;;0.30;;
64873;SDS011;51367;45.204;38.576;2024-01-15T01:03:26;1.15;;;0.60;;
64873;SDS011;51367;45.204;38.576;2024-01-15T01:05:52;0.30;;;0.30;;
64873;SDS011;51367;45.204;38.576;2024-01-15T01:08:18;0.17;;;0.17;;
64873;SDS011;51367;45.204;38.576;2024-01-15T01:10:44;0.10;;;0.10;;
64873;SDS011;51367;45.204;38.576;2024-01-15T01:13:10;0.20;;;0.20;;
64873;SDS011;51367;45.204;38.576;2024-01-15T01:15:36;0.43;;;0.43;;
64873;SDS011;51367;45.204;38.576;2024-01-15T01:18:02;0.40;;;0.40;;
64873;SDS011;51367;45.204;38.576;2024-01-15T01:20:28;0.50;;;0.35;;
64873;SDS011;51367;45.204;38.576;2024-01-15T01:22:55;0.85;;;0.85;;
64873;SDS011;51367;45.204;38.576;2024-01-15T01:25:21;0.20;;;0.20;;
64873;SDS011;51367;45.204;38.576;2024-01-15T01:27:47;1.45;;;0.50;;
64873;SDS011;51367;45.204;38.576;2024-01-15T01:30:14;0.30;;;0.30;;
64873;SDS011;51367;45.204;38.576;2024-01-15T01:32:40;0.43;;;0.43;;
64873;SDS011;51367;45.204;38.576;2024-01-15T01:35:06;0.45;;;0.40;;
64873;SDS011;51367;45.204;38.576;2024-01-15T01:37:32;0.50;;;0.50;;
64873;SDS011;51367;45.204;38.576;2024-01-15T01:39:59;0.55;;;0.55;;
64873;SDS011;51367;45.204;38.576;2024-01-15T01:42:25;0.20;;;0.20;;
64873;SDS011;51367;45.204;38.576;2024-01-15T01:44:51;0.30;;;0.30;;
64873;SDS011;51367;45.204;38.576;2024-01-15T01:47:17;0.60;;;0.60;;
64873;SDS011;51367;45.204;38.576;2024-01-15T01:49:44;0.43;;;0.43;;
64873;SDS011;51367;45.204;38.576;2024-01-15T01:52:11;0.40;;;0.40;;
64873;SDS011;51367;45.204;38.576;2024-01-15T01:54:37;0.68;;;0.68;;
64873;SDS011;51367;45.204;38.576;2024-01-15T01:57:05;0.20;;;0.20;;
64873;SDS011;51367;45.204;38.576;2024-01-15T01:59:32;0.40;;;0.40;;
64873;SDS011;51367;45.204;38.576;2024-01-15T02:02:00;3.35;;;1.08;;
64873;SDS011;51367;45.204;38.576;2024-01-15T02:04:29;0.30;;;0.30;;
64873;SDS011;51367;45.204;38.576;2024-01-15T02:06:56;0.30;;;0.30;;
64873;SDS011;51367;45.204;38.576;2024-01-15T02:09:22;10.13;;;0.40;;
64873;SDS011;51367;45.204;38.576;2024-01-15T02:11:48;0.30;;;0.30;;
64873;SDS011;51367;45.204;38.576;2024-01-15T02:14:14;0.50;;;0.43;;
64873;SDS011;51367;45.204;38.576;2024-01-15T02:16:41;0.40;;;0.40;;
64873;SDS011;51367;45.204;38.576;2024-01-15T02:19:07;0.40;;;0.40;;
64873;SDS011;51367;45.204;38.576;2024-01-15T02:21:33;0.93;;;0.77;;
64873;SDS011;51367;45.204;38.576;2024-01-15T02:23:59;0.38;;;0.38;;
64873;SDS011;51367;45.204;38.576;2024-01-15T02:26:25;0.30;;;0.30;;
64873;SDS011;51367;45.204;38.576;2024-01-15T02:28:52;0.77;;;0.75;;
64873;SDS011;51367;45.204;38.576;2024-01-15T02:31:18;0.63;;;0.63;;
64873;SDS011;51367;45.204;38.576;2024-01-15T02:33:44;0.40;;;0.40;;
64873;SDS011;51367;45.204;38.576;2024-01-15T02:36:11;2.42;;;1.40;;
64873;SDS011;51367;45.204;38.576;2024-01-15T02:38:37;0.60;;;0.43;;
64873;SDS011;51367;45.204;38.576;2024-01-15T02:41:03;0.68;;;0.47;;
64873;SDS011;51367;45.204;38.576;2024-01-15T02:43:30;1.17;;;0.80;;
64873;SDS011;51367;45.204;38.576;2024-01-15T02:45:56;7.20;;;1.42;;
64873;SDS011;51367;45.204;38.576;2024-01-15T02:48:22;0.32;;;0.32;;
64873;SDS011;51367;45.204;38.576;2024-01-15T02:50:47;6.00;;;1.33;;
64873;SDS011;51367;45.204;38.576;2024-01-15T02:53:13;1.02;;;0.60;;
64873;SDS011;51367;45.204;38.576;2024-01-15T02:55:39;1.45;;;1.35;;
64873;SDS011;51367;45.204;38.576;2024-01-15T02:58:05;0.52;;;0.52;;
64873;SDS011;51367;45.204;38.576;2024-01-15T03:00:32;0.80;;;0.80;;
64873;SDS011;51367;45.204;38.576;2024-01-15T03:02:58;1.23;;;1.13;;
64873;SDS011;51367;45.204;38.576;2024-01-15T03:05:24;2.35;;;0.77;;
64873;SDS011;51367;45.204;38.576;2024-01-15T03:07:50;0.65;;;0.65;;
64873;SDS011;51367;45.204;38.576;2024-01-15T03:10:16;0.80;;;0.80;;
64873;SDS011;51367;45.204;38.576;2024-01-15T03:12:42;0.35;;;0.35;;
64873;SDS011;51367;45.204;38.576;2024-01-15T03:15:08;0.40;;;0.40;;
64873;SDS011;51367;45.204;38.576;2024-01-15T03:17:34;0.73;;;0.73;;
64873;SDS011;51367;45.204;38.576;2024-01-15T03:20:01;0.40;;;0.40;;
64873;SDS011;51367;45.204;38.576;2024-01-15T03:22:27;1.00;;;1.00;;
64873;SDS011;51367;45.204;38.576;2024-01-15T03:24:54;0.60;;;0.60;;
64873;SDS011;51367;45.204;38.576;2024-01-15T03:27:20;18.15;;;0.95;;
64873;SDS011;51367;45.204;38.576;2024-01-15T03:29:46;1.35;;;0.68;;
64873;SDS011;51367;45.204;38.576;2024-01-15T03:32:12;1.02;;;1.00;;
64873;SDS011;51367;45.204;38.576;2024-01-15T03:34:38;0.40;;;0.40;;
64873;SDS011;51367;45.204;38.576;2024-01-15T03:37:04;2.05;;;0.80;;
64873;SDS011;51367;45.204;38.576;2024-01-15T03:39:30;10.30;;;0.93;;
64873;SDS011;51367;45.204;38.576;2024-01-15T03:41:56;0.77;;;0.70;;
64873;SDS011;51367;45.204;38.576;2024-01-15T03:44:22;0.63;;;0.63;;
64873;SDS011;51367;45.204;38.576;2024-01-15T03:46:48;1.25;;;0.65;;
64873;SDS011;51367;45.204;38.576;2024-01-15T03:49:15;1.52;;;0.57;;
64873;SDS011;51367;45.204;38.576;2024-01-15T03:51:41;1.45;;;1.40;;
64873;SDS011;51367;45.204;38.576;2024-01-15T03:54:07;0.45;;;0.45;;
64873;SDS011;51367;45.204;38.576;2024-01-15T03:56:33;0.52;;;0.50;;
64873;SDS011;51367;45.204;38.576;2024-01-15T03:58:59;0.57;;;0.57;;
64873;SDS011;51367;45.204;38.576;2024-01-15T04:01:25;1.02;;;0.98;;
64873;SDS011;51367;45.204;38.576;2024-01-15T04:03:51;0.52;;;0.52;;
64873;SDS011;51367;45.204;38.576;2024-01-15T04:06:17;0.60;;;0.60;;
64873;SDS011;51367;45.204;38.576;2024-01-15T04:08:43;0.60;;;0.60;;
64873;SDS011;51367;45.204;38.576;2024-01-15T04:11:09;0.40;;;0.40;;
64873;SDS011;51367;45.204;38.576;2024-01-15T04:13:35;0.40;;;0.40;;
64873;SDS011;51367;45.204;38.576;2024-01-15T04:16:01;0.35;;;0.35;;
64873;SDS011;51367;45.204;38.576;2024-01-15T04:18:28;0.55;;;0.43;;
64873;SDS011;51367;45.204;38.576;2024-01-15T04:20:54;1.73;;;1.00;;
64873;SDS011;51367;45.204;38.576;2024-01-15T04:23:20;0.45;;;0.45;;
64873;SDS011;51367;45.204;38.576;2024-01-15T04:25:46;0.45;;;0.45;;
64873;SDS011;51367;45.204;38.576;2024-01-15T04:28:12;0.30;;;0.30;;
64873;SDS011;51367;45.204;38.576;2024-01-15T04:30:38;0.40;;;0.40;;
64873;SDS011;51367;45.204;38.576;2024-01-15T04:33:04;0.70;;;0.70;;
64873;SDS011;51367;45.204;38.576;2024-01-15T04:35:30;0.77;;;0.77;;
64873;SDS011;51367;45.204;38.576;2024-01-15T04:37:57;0.73;;;0.73;;
64873;SDS011;51367;45.204;38.576;2024-01-15T04:40:23;0.47;;;0.47;;
64873;SDS011;51367;45.204;38.576;2024-01-15T04:42:49;0.73;;;0.73;;
64873;SDS011;51367;45.204;38.576;2024-01-15T04:45:15;0.60;;;0.60;;
64873;SDS011;51367;45.204;38.576;2024-01-15T04:47:41;1.05;;;1.05;;
64873;SDS011;51367;45.204;38.576;2024-01-15T04:50:07;0.38;;;0.38;;
64873;SDS011;51367;45.204;38.576;2024-01-15T04:52:34;1.10;;;1.00;;
64873;SDS011;51367;45.204;38.576;2024-01-15T04:55:00;0.55;;;0.55;;
64873;SDS011;51367;45.204;38.576;2024-01-15T04:57:26;2.28;;;1.27;;
64873;SDS011;51367;45.204;38.576;2024-01-15T04:59:52;0.70;;;0.70;;
64873;SDS011;51367;45.204;38.576;2024-01-15T05:02:18;1.05;;;0.98;;
64873;SDS011;51367;45.204;38.576;2024-01-15T05:04:44;1.23;;;1.20;;
64873;SDS011;51367;45.204;38.576;2024-01-15T05:07:10;1.13;;;1.13;;
64873;SDS011;51367;45.204;38.576;2024-01-15T05:09:36;2.55;;;0.95;;
64873;SDS011;51367;45.204;38.576;2024-01-15T05:12:02;0.63;;;0.63;;
64873;SDS011;51367;45.204;38.576;2024-01-15T05:14:28;1.38;;;1.00;;
64873;SDS011;51367;45.204;38.576;2024-01-15T05:16:54;0.75;;;0.75;;
64873;SDS011;51367;45.204;38.576;2024-01-15T05:19:20;0.65;;;0.65;;
64873;SDS011;51367;45.204;38.576;2024-01-15T05:21:46;12.90;;;0.93;;
64873;SDS011;51367;45.204;38.576;2024-01-15T05:24:12;0.68;;;0.68;;
64873;SDS011;51367;45.204;38.576;2024-01-15T05:26:38;0.70;;;0.70;;
64873;SDS011;51367;45.204;38.576;2024-01-15T05:29:04;0.63;;;0.63;;
64873;SDS011;51367;45.204;38.576;2024-01-15T05:31:30;4.75;;;2.17;;
64873;SDS011;51367;45.204;38.576;2024-01-15T05:33:56;1.50;;;0.77;;
64873;SDS011;51367;45.204;38.576;2024-01-15T05:36:22;0.80;;;0.80;;
64873;SDS011;51367;45.204;38.576;2024-01-15T05:38:49;3.08;;;0.90;;
64873;SDS011;51367;45.204;38.576;2024-01-15T05:41:15;12.68;;;1.15;;
64873;SDS011;51367;45.204;38.576;2024-01-15T05:43:41;1.00;;;1.00;;
64873;SDS011;51367;45.204;38.576;2024-01-15T05:46:07;7.75;;;1.85;;
64873;SDS011;51367;45.204;38.576;2024-01-15T05:48:33;1.00;;;1.00;;
64873;SDS011;51367;45.204;38.576;2024-01-15T05:50:59;3.70;;;1.48;;
64873;SDS011;51367;45.204;38.576;2024-01-15T05:53:25;0.93;;;0.90;;
64873;SDS011;51367;45.204;38.576;2024-01-15T05:55:51;1.63;;;1.40;;
64873;SDS011;51367;45.204;38.576;2024-01-15T05:58:17;1.70;;;1.60;;
64873;SDS011;51367;45.204;38.576;2024-01-15T06:00:43;1.63;;;1.48;;
64873;SDS011;51367;45.204;38.576;2024-01-15T06:03:09;0.98;;;0.88;;
64873;SDS011;51367;45.204;38.576;2024-01-15T06:05:35;2.40;;;2.13;;
64873;SDS011;51367;45.204;38.576;2024-01-15T06:08:01;1.48;;;1.38;;
64873;SDS011;51367;45.204;38.576;2024-01-15T06:10:27;2.60;;;2.10;;
64873;SDS011;51367;45.204;38.576;2024-01-15T06:12:53;1.17;;;1.08;;
64873;SDS011;51367;45.204;38.576;2024-01-15T06:15:19;1.00;;;1.00;;
64873;SDS011;51367;45.204;38.576;2024-01-15T06:17:45;1.52;;;1.15;;
64873;SDS011;51367;45.204;38.576;2024-01-15T06:20:11;1.40;;;1.17;;
64873;SDS011;51367;45.204;38.576;2024-01-15T06:22:38;1.10;;;1.10;;
64873;SDS011;51367;45.204;38.576;2024-01-15T06:25:06;1.98;;;1.70;;
64873;SDS011;51367;45.204;38.576;2024-01-15T06:27:33;1.38;;;1.35;;
64873;SDS011;51367;45.204;38.576;2024-01-15T06:29:59;2.03;;;1.90;;
64873;SDS011;51367;45.204;38.576;2024-01-15T06:32:25;1.50;;;1.40;;
64873;SDS011;51367;45.204;38.576;2024-01-15T06:34:51;1.02;;;1.02;;
64873;SDS011;51367;45.204;38.576;2024-01-15T06:37:17;4.97;;;3.00;;
64873;SDS011;51367;45.204;38.576;2024-01-15T06:39:45;1.50;;;1.40;;
64873;SDS011;51367;45.204;38.576;2024-01-15T06:42:11;1.13;;;1.10;;
64873;SDS011;51367;45.204;38.576;2024-01-15T06:44:37;1.42;;;1.33;;
64873;SDS011;51367;45.204;38.576;2024-01-15T06:47:03;1.10;;;1.10;;
64873;SDS011;51367;45.204;38.576;2024-01-15T06:49:29;0.73;;;0.73;;
64873;SDS011;51367;45.204;38.576;2024-01-15T06:51:55;2.95;;;1.20;;
64873;SDS011;51367;45.204;38.576;2024-01-15T06:54:22;1.08;;;0.98;;
64873;SDS011;51367;45.204;38.576;2024-01-15T06:56:49;1.05;;;0.98;;
64873;SDS011;51367;45.204;38.576;2024-01-15T06:59:15;1.10;;;1.00;;
64873;SDS011;51367;45.204;38.576;2024-01-15T07:01:41;2.92;;;1.67;;
64873;SDS011;51367;45.204;38.576;2024-01-15T07:04:07;0.77;;;0.77;;
64873;SDS011;51367;45.204;38.576;2024-01-15T07:06:33;0.82;;;0.82;;
64873;SDS011;51367;45.204;38.576;2024-01-15T07:08:59;1.25;;;1.05;;
64873;SDS011;51367;45.204;38.576;2024-01-15T07:11:25;1.02;;;0.93;;
64873;SDS011;51367;45.204;38.576;2024-01-15T07:13:51;0.90;;;0.90;;
64873;SDS011;51367;45.204;38.576;2024-01-15T07:16:17;4.88;;;0.90;;
64873;SDS011;51367;45.204;38.576;2024-01-15T07:18:43;1.33;;;1.25;;
64873;SDS011;51367;45.204;38.576;2024-01-15T07:21:09;1.17;;;1.13;;
64873;SDS011;51367;45.204;38.576;2024-01-15T07:23:35;1.75;;;1.65;;
64873;SDS011;51367;45.204;38.576;2024-01-15T07:26:01;2.55;;;1.42;;
64873;SDS011;51367;45.204;38.576;2024-01-15T07:28:30;1.02;;;1.00;;
64873;SDS011;51367;45.204;38.576;2024-01-15T07:30:57;1.23;;;1.23;;
64873;SDS011;51367;45.204;38.576;2024-01-15T07:33:23;1.23;;;1.10;;
64873;SDS011;51367;45.204;38.576;2024-01-15T07:35:49;1.23;;;1.08;;
64873;SDS011;51367;45.204;38.576;2024-01-15T07:38:15;1.92;;;1.83;;
64873;SDS011;51367;45.204;38.576;2024-01-15T07:40:41;1.05;;;1.02;;
64873;SDS011;51367;45.204;38.576;2024-01-15T07:43:07;1.20;;;1.13;;
64873;SDS011;51367;45.204;38.576;2024-01-15T07:45:33;2.15;;;1.98;;
64873;SDS011;51367;45.204;38.576;2024-01-15T07:47:59;1.27;;;1.20;;
64873;SDS011;51367;45.204;38.576;2024-01-15T07:50:25;2.95;;;2.35;;
64873;SDS011;51367;45.204;38.576;2024-01-15T07:52:51;4.57;;;2.80;;
64873;SDS011;51367;45.204;38.576;2024-01-15T07:55:18;2.20;;;2.10;;
64873;SDS011;51367;45.204;38.576;2024-01-15T07:57:44;1.55;;;1.45;;
64873;SDS011;51367;45.204;38.576;2024-01-15T08:00:11;1.85;;;1.38;;
64873;SDS011;51367;45.204;38.576;2024-01-15T08:02:37;1.58;;;1.48;;
64873;SDS011;51367;45.204;38.576;2024-01-15T08:05:04;3.45;;;1.85;;
64873;SDS011;51367;45.204;38.576;2024-01-15T08:07:30;1.85;;;1.52;;
64873;SDS011;51367;45.204;38.576;2024-01-15T08:09:56;5.80;;;2.25;;
64873;SDS011;51367;45.204;38.576;2024-01-15T08:12:24;4.10;;;1.73;;
64873;SDS011;51367;45.204;38.576;2024-01-15T08:14:50;1.17;;;1.08;;
64873;SDS011;51367;45.204;38.576;2024-01-15T08:17:16;2.95;;;1.40;;
64873;SDS011;51367;45.204;38.576;2024-01-15T08:19:42;1.13;;;1.02;;
64873;SDS011;51367;45.204;38.576;2024-01-15T08:22:08;1.25;;;1.23;;
64873;SDS011;51367;45.204;38.576;2024-01-15T08:24:35;2.53;;;1.55;;
64873;SDS011;51367;45.204;38.576;2024-01-15T08:27:01;1.35;;;1.25;;
64873;SDS011;51367;45.204;38.576;2024-01-15T08:29:27;1.90;;;1.50;;
64873;SDS011;51367;45.204;38.576;2024-01-15T08:31:53;1.40;;;1.30;;
64873;SDS011;51367;45.204;38.576;2024-01-15T08:34:19;13.40;;;2.05;;
64873;SDS011;51367;45.204;38.576;2024-01-15T08:36:45;1.95;;;1.35;;
64873;SDS011;51367;45.204;38.576;2024-01-15T08:39:12;5.68;;;0.98;;
64873;SDS011;51367;45.204;38.576;2024-01-15T08:41:38;2.33;;;1.90;;
64873;SDS011;51367;45.204;38.576;2024-01-15T08:44:04;1.13;;;1.08;;
64873;SDS011;51367;45.204;38.576;2024-01-15T08:46:30;1.40;;;1.30;;
64873;SDS011;51367;45.204;38.576;2024-01-15T08:48:56;1.83;;;1.40;;
64873;SDS011;51367;45.204;38.576;2024-01-15T08:51:22;2.13;;;1.60;;
64873;SDS011;51367;45.204;38.576;2024-01-15T08:53:48;1.27;;;1.27;;
64873;SDS011;51367;45.204;38.576;2024-01-15T08:56:14;3.78;;;1.77;;
64873;SDS011;51367;45.204;38.576;2024-01-15T08:58:40;3.08;;;1.52;;
64873;SDS011;51367;45.204;38.576;2024-01-15T09:01:06;2.15;;;1.95;;
64873;SDS011;51367;45.204;38.576;2024-01-15T09:03:32;2.55;;;2.42;;
64873;SDS011;51367;45.204;38.576;2024-01-15T09:05:59;1.70;;;1.45;;
64873;SDS011;51367;45.204;38.576;2024-01-15T09:08:25;3.70;;;2.17;;
64873;SDS011;51367;45.204;38.576;2024-01-15T09:10:52;1.48;;;1.38;;
64873;SDS011;51367;45.204;38.576;2024-01-15T09:13:18;0.90;;;0.90;;
64873;SDS011;51367;45.204;38.576;2024-01-15T09:15:44;1.38;;;1.05;;
64873;SDS011;51367;45.204;38.576;2024-01-15T09:18:10;1.10;;;1.10;;
64873;SDS011;51367;45.204;38.576;2024-01-15T09:20:37;1.17;;;1.10;;
64873;SDS011;51367;45.204;38.576;2024-01-15T09:23:03;1.40;;;1.25;;
64873;SDS011;51367;45.204;38.576;2024-01-15T09:25:30;2.42;;;2.00;;
64873;SDS011;51367;45.204;38.576;2024-01-15T09:27:56;1.40;;;1.30;;
64873;SDS011;51367;45.204;38.576;2024-01-15T09:30:22;1.20;;;1.10;;
64873;SDS011;51367;45.204;38.576;2024-01-15T09:32:48;7.85;;;1.83;;
64873;SDS011;51367;45.204;38.576;2024-01-15T09:35:14;1.88;;;1.60;;
64873;SDS011;51367;45.204;38.576;2024-01-15T09:37:40;1.50;;;1.40;;
64873;SDS011;51367;45.204;38.576;2024-01-15T09:40:08;3.15;;;1.83;;
64873;SDS011;51367;45.204;38.576;2024-01-15T09:42:39;7.20;;;2.22;;
64873;SDS011;51367;45.204;38.576;2024-01-15T09:45:06;1.85;;;1.73;;
64873;SDS011;51367;45.204;38.576;2024-01-15T09:47:35;2.47;;;1.67;;
64873;SDS011;51367;45.204;38.576;2024-01-15T09:50:02;2.30;;;1.88;;
64873;SDS011;51367;45.204;38.576;2024-01-15T09:52:29;2.83;;;2.03;;
64873;SDS011;51367;45.204;38.576;2024-01-15T09:54:56;2.85;;;2.35;;
64873;SDS011;51367;45.204;38.576;2024-01-15T09:57:24;3.17;;;2.35;;
64873;SDS011;51367;45.204;38.576;2024-01-15T09:59:50;11.55;;;3.10;;
64873;SDS011;51367;45.204;38.576;2024-01-15T10:02:19;2.38;;;2.17;;
64873;SDS011;51367;45.204;38.576;2024-01-15T10:04:46;4.82;;;2.67;;
64873;SDS011;51367;45.204;38.576;2024-01-15T10:07:15;5.22;;;2.88;;
64873;SDS011;51367;45.204;38.576;2024-01-15T10:09:45;3.87;;;2.20;;
64873;SDS011;51367;45.204;38.576;2024-01-15T10:12:12;2.33;;;2.15;;
64873;SDS011;51367;45.204;38.576;2024-01-15T10:14:38;2.42;;;2.22;;
64873;SDS011;51367;45.204;38.576;2024-01-15T10:17:13;5.90;;;2.65;;
64873;SDS011;51367;45.204;38.576;2024-01-15T10:19:40;4.28;;;2.53;;
64873;SDS011;51367;45.204;38.576;2024-01-15T10:22:07;6.07;;;1.83;;
64873;SDS011;51367;45.204;38.576;2024-01-15T10:24:37;3.08;;;2.33;;
64873;SDS011;51367;45.204;38.576;2024-01-15T10:27:07;2.00;;;1.80;;
64873;SDS011;51367;45.204;38.576;2024-01-15T10:29:34;2.38;;;2.15;;
64873;SDS011;51367;45.204;38.576;2024-01-15T10:32:02;3.80;;;2.00;;
64873;SDS011;51367;45.204;38.576;2024-01-15T10:34:31;3.63;;;2.60;;
64873;SDS011;51367;45.204;38.576;2024-01-15T10:36:57;9.82;;;2.40;;
64873;SDS011;51367;45.204;38.576;2024-01-15T10:39:24;10.68;;;3.03;;
64873;SDS011;51367;45.204;38.576;2024-01-15T10:41:50;5.72;;;3.20;;
64873;SDS011;51367;45.204;38.576;2024-01-15T10:44:17;7.13;;;3.33;;
64873;SDS011;51367;45.204;38.576;2024-01-15T10:46:44;8.25;;;4.47;;
64873;SDS011;51367;45.204;38.576;2024-01-15T10:49:11;5.75;;;4.53;;
64873;SDS011;51367;45.204;38.576;2024-01-15T10:51:38;2.88;;;2.58;;
64873;SDS011;51367;45.204;38.576;2024-01-15T10:54:04;2.88;;;2.65;;
64873;SDS011;51367;45.204;38.576;2024-01-15T10:56:31;3.17;;;2.85;;
64873;SDS011;51367;45.204;38.576;2024-01-15T10:59:00;3.50;;;2.17;;
64873;SDS011;51367;45.204;38.576;2024-01-15T11:01:28;3.45;;;2.47;;
64873;SDS011;51367;45.204;38.576;2024-01-15T11:03:54;4.72;;;2.88;;
64873;SDS011;51367;45.204;38.576;2024-01-15T11:06:23;2.95;;;2.40;;
64873;SDS011;51367;45.204;38.576;2024-01-15T11:08:50;4.43;;;2.53;;
64873;SDS011;51367;45.204;38.576;2024-01-15T11:11:18;2.28;;;2.05;;
64873;SDS011;51367;45.204;38.576;2024-01-15T11:13:46;4.20;;;2.42;;
64873;SDS011;51367;45.204;38.576;2024-01-15T11:16:15;5.07;;;3.05;;
64873;SDS011;51367;45.204;38.576;2024-01-15T11:18:43;3.17;;;2.88;;
64873;SDS011;51367;45.204;38.576;2024-01-15T11:21:22;2.28;;;1.70;;
64873;SDS011;51367;45.204;38.576;2024-01-15T11:23:53;9.35;;;2.90;;
64873;SDS011;51367;45.204;38.576;2024-01-15T11:26:28;3.50;;;2.70;;
64873;SDS011;51367;45.204;38.576;2024-01-15T11:28:55;2.65;;;2.28;;
64873;SDS011;51367;45.204;38.576;2024-01-15T11:34:06;3.30;;;2.95;;
64873;SDS011;51367;45.204;38.576;2024-01-15T11:41:58;3.22;;;2.67;;
64873;SDS011;51367;45.204;38.576;2024-01-15T11:44:26;3.65;;;2.92;;
64873;SDS011;51367;45.204;38.576;2024-01-15T11:52:10;3.22;;;2.58;;
64873;SDS011;51367;45.204;38.576;2024-01-15T11:54:40;3.28;;;2.08;;
64873;SDS011;51367;45.204;38.576;2024-01-15T11:57:14;3.05;;;2.42;;
64873;SDS011;51367;45.204;38.576;2024-01-15T11:59:47;6.43;;;3.20;;
64873;SDS011;51367;45.204;38.576;2024-01-15T12:02:13;3.50;;;2.75;;
64873;SDS011;51367;45.204;38.576;2024-01-15T12:04:39;3.58;;;2.70;;
64873;SDS011;51367;45.204;38.576;2024-01-15T12:07:06;5.05;;;2.92;;
64873;SDS011;51367;45.204;38.576;2024-01-15T12:09:32;4.68;;;2.00;;
64873;SDS011;51367;45.204;38.576;2024-01-15T12:12:00;1.92;;;1.40;;
64873;SDS011;51367;45.204;38.576;2024-01-15T12:14:31;7.63;;;3.33;;
64873;SDS011;51367;45.204;38.576;2024-01-15T12:17:00;5.68;;;3.33;;
64873;SDS011;51367;45.204;38.576;2024-01-15T12:19:26;5.25;;;2.95;;
64873;SDS011;51367;45.204;38.576;2024-01-15T12:21:52;1.52;;;1.42;;
64873;SDS011;51367;45.204;38.576;2024-01-15T12:24:18;3.85;;;2.38;;
64873;SDS011;51367;45.204;38.576;2024-01-15T12:26:44;4.22;;;3.40;;
64873;SDS011;51367;45.204;38.576;2024-01-15T12:29:11;4.82;;;2.17;;
64873;SDS011;51367;45.204;38.576;2024-01-15T12:31:37;2.55;;;2.22;;
64873;SDS011;51367;45.204;38.576;2024-01-15T12:34:03;4.45;;;2.47;;
64873;SDS011;51367;45.204;38.576;2024-01-15T12:36:32;3.50;;;2.35;;
64873;SDS011;51367;45.204;38.576;2024-01-15T12:39:01;3.97;;;2.03;;
64873;SDS011;51367;45.204;38.576;2024-01-15T12:41:27;12.10;;;2.38;;
64873;SDS011;51367;45.204;38.576;2024-01-15T12:43:53;5.18;;;2.20;;
64873;SDS011;51367;45.204;38.576;2024-01-15T12:46:19;2.08;;;1.83;;
64873;SDS011;51367;45.204;38.576;2024-01-15T12:48:45;3.13;;;1.92;;
64873;SDS011;51367;45.204;38.576;2024-01-15T12:51:11;4.32;;;2.28;;
64873;SDS011;51367;45.204;38.576;2024-01-15T12:53:37;3.72;;;1.70;;
64873;SDS011;51367;45.204;38.576;2024-01-15T12:56:04;4.82;;;2.90;;
64873;SDS011;51367;45.204;38.576;2024-01-15T12:58:30;2.08;;;1.83;;
64873;SDS011;51367;45.204;38.576;2024-01-15T13:00:56;1.98;;;1.88;;
64873;SDS011;51367;45.204;38.576;2024-01-15T13:03:23;5.45;;;2.03;;
64873;SDS011;51367;45.204;38.576;2024-01-15T13:05:49;2.45;;;1.67;;
64873;SDS011;51367;45.204;38.576;2024-01-15T13:08:16;5.15;;;1.98;;
64873;SDS011;51367;45.204;38.576;2024-01-15T13:10:42;3.90;;;2.40;;
64873;SDS011;51367;45.204;38.576;2024-01-15T13:13:08;1.50;;;1.40;;
64873;SDS011;51367;45.204;38.576;2024-01-15T13:15:34;3.03;;;2.13;;
64873;SDS011;51367;45.204;38.576;2024-01-15T13:18:01;1.65;;;1.10;;
64873;SDS011;51367;45.204;38.576;2024-01-15T13:20:27;2.90;;;2.45;;
64873;SDS011;51367;45.204;38.576;2024-01-15T13:22:53;1.48;;;1.35;;
64873;SDS011;51367;45.204;38.576;2024-01-15T13:25:20;1.30;;;1.20;;
64873;SDS011;51367;45.204;38.576;2024-01-15T13:27:46;1.00;;;1.00;;
64873;SDS011;51367;45.204;38.576;2024-01-15T13:30:12;1.40;;;1.08;;
64873;SDS011;51367;45.204;38.576;2024-01-15T13:32:38;1.83;;;1.42;;
64873;SDS011;51367;45.204;38.576;2024-01-15T13:35:05;1.42;;;1.33;;
64873;SDS011;51367;45.204;38.576;2024-01-15T13:37:34;1.85;;;1.50;;
64873;SDS011;51367;45.204;38.576;2024-01-15T13:40:03;3.47;;;2.35;;
64873;SDS011;51367;45.204;38.576;2024-01-15T13:42:29;3.65;;;2.40;;
64873;SDS011;51367;45.204;38.576;2024-01-15T13:44:55;4.25;;;3.13;;
64873;SDS011;51367;45.204;38.576;2024-01-15T13:47:21;2.58;;;1.70;;
64873;SDS011;51367;45.204;38.576;2024-01-15T13:49:48;2.05;;;1.17;;
64873;SDS011;51367;45.204;38.576;2024-01-15T13:52:14;2.15;;;1.38;;
64873;SDS011;51367;45.204;38.576;2024-01-15T13:54:41;7.82;;;1.63;;
64873;SDS011;51367;45.204;38.576;2024-01-15T13:57:07;2.08;;;1.20;;
64873;SDS011;51367;45.204;38.576;2024-01-15T13:59:33;4.90;;;1.80;;
64873;SDS011;51367;45.204;38.576;2024-01-15T14:02:00;1.95;;;0.75;;
64873;SDS011;51367;45.204;38.576;2024-01-15T14:04:26;2.47;;;1.52;;
64873;SDS011;51367;45.204;38.576;2024-01-15T14:06:52;2.22;;;1.73;;
64873;SDS011;51367;45.204;38.576;2024-01-15T14:09:18;1.92;;;1.35;;
64873;SDS011;51367;45.204;38.576;2024-01-15T14:11:44;2.83;;;2.22;;
64873;SDS011;51367;45.204;38.576;2024-01-15T14:14:10;1.92;;;1.75;;
64873;SDS011;51367;45.204;38.576;2024-01-15T14:16:36;1.42;;;1.33;;
64873;SDS011;51367;45.204;38.576;2024-01-15T14:19:02;1.95;;;1.75;;
64873;SDS011;51367;45.204;38.576;2024-01-15T14:21:28;1.58;;;1.25;;
64873;SDS011;51367;45.204;38.576;2024-01-15T14:23:54;1.48;;;1.38;;
64873;SDS011;51367;45.204;38.576;2024-01-15T14:26:21;3.65;;;1.45;;
64873;SDS011;51367;45.204;38.576;2024-01-15T14:28:47;2.03;;;1.77;;
64873;SDS011;51367;45.204;38.576;2024-01-15T14:31:13;1.10;;;1.00;;
64873;SDS011;51367;45.204;38.576;2024-01-15T14:33:39;1.85;;;1.75;;
64873;SDS011;51367;45.204;38.576;2024-01-15T14:36:06;0.82;;;0.82;;
64873;SDS011;51367;45.204;38.576;2024-01-15T14:38:32;3.47;;;1.42;;
64873;SDS011;51367;45.204;38.576;2024-01-15T14:40:58;2.78;;;1.65;;
64873;SDS011;51367;45.204;38.576;2024-01-15T14:43:24;1.58;;;1.48;;
64873;SDS011;51367;45.204;38.576;2024-01-15T14:45:50;1.40;;;1.30;;
64873;SDS011;51367;45.204;38.576;2024-01-15T14:48:16;0.95;;;0.95;;
64873;SDS011;51367;45.204;38.576;2024-01-15T14:50:42;2.50;;;1.20;;
64873;SDS011;51367;45.204;38.576;2024-01-15T14:53:08;1.42;;;1.05;;
64873;SDS011;51367;45.204;38.576;2024-01-15T14:55:34;0.80;;;0.80;;
64873;SDS011;51367;45.204;38.576;2024-01-15T14:58:00;2.67;;;1.25;;
64873;SDS011;51367;45.204;38.576;2024-01-15T15:00:28;13.93;;;5.47;;
64873;SDS011;51367;45.204;38.576;2024-01-15T15:02:54;3.55;;;1.40;;
64873;SDS011;51367;45.204;38.576;2024-01-15T15:05:20;2.22;;;2.03;;
64873;SDS011;51367;45.204;38.576;2024-01-15T15:07:46;1.85;;;1.10;;
64873;SDS011;51367;45.204;38.576;2024-01-15T15:10:12;1.42;;;1.33;;
64873;SDS011;51367;45.204;38.576;2024-01-15T15:12:38;0.90;;;0.90;;
64873;SDS011;51367;45.204;38.576;2024-01-15T15:15:04;0.93;;;0.93;;
64873;SDS011;51367;45.204;38.576;2024-01-15T15:17:32;2.00;;;1.33;;